sensor_id;sensor_type;location;lat;lon;timestamp;P1;durP1;ratioP1;P2;durP2;ratioP2
68168;SDS011;54981;50.206;15.978;2024-01-30T00:13:31;24.83;;;20.77;;
68168;SDS011;54981;50.206;15.978;2024-01-30T01:00:24;30.05;;;21.38;;
68168;SDS011;54981;50.206;15.978;2024-01-30T01:31:43;27.10;;;23.43;;
68168;SDS011;54981;50.206;15.978;2024-01-30T01:47:24;24.63;;;21.60;;
68168;SDS011;54981;50.206;15.978;2024-01-30T02:34:10;27.77;;;23.48;;
68168;SDS011;54981;50.206;15.978;2024-01-30T02:49:53;28.95;;;21.83;;
68168;SDS011;54981;50.206;15.978;2024-01-30T03:05:19;32.53;;;22.42;;
68168;SDS011;54981;50.206;15.978;2024-01-30T03:21:00;29.13;;;22.40;;
68168;SDS011;54981;50.206;15.978;2024-01-30T03:36:19;27.13;;;23.00;;
68168;SDS011;54981;50.206;15.978;2024-01-30T03:52:12;24.93;;;22.20;;
68168;SDS011;54981;50.206;15.978;2024-01-30T04:07:21;25.23;;;22.58;;
68168;SDS011;54981;50.206;15.978;2024-01-30T04:22:40;28.15;;;23.50;;
68168;SDS011;54981;50.206;15.978;2024-01-30T04:37:58;29.98;;;21.92;;
68168;SDS011;54981;50.206;15.978;2024-01-30T05:08:42;30.25;;;23.08;;
68168;SDS011;54981;50.206;15.978;2024-01-30T05:23:54;25.73;;;22.33;;
68168;SDS011;54981;50.206;15.978;2024-01-30T05:39:07;25.48;;;22.95;;
68168;SDS011;54981;50.206;15.978;2024-01-30T05:54:48;30.27;;;22.98;;
68168;SDS011;54981;50.206;15.978;2024-01-30T06:10:06;25.77;;;21.77;;
68168;SDS011;54981;50.206;15.978;2024-01-30T06:41:23;28.60;;;20.13;;
68168;SDS011;54981;50.206;15.978;2024-01-30T06:56:38;28.83;;;22.77;;
68168;SDS011;54981;50.206;15.978;2024-01-30T07:12:19;28.08;;;20.45;;
68168;SDS011;54981;50.206;15.978;2024-01-30T07:27:35;27.17;;;24.35;;
68168;SDS011;54981;50.206;15.978;2024-01-30T07:42:41;30.42;;;22.45;;
68168;SDS011;54981;50.206;15.978;2024-01-30T07:57:48;28.20;;;23.67;;
68168;SDS011;54981;50.206;15.978;2024-01-30T08:12:57;29.90;;;23.00;;
68168;SDS011;54981;50.206;15.978;2024-01-30T08:28:18;26.40;;;22.52;;
68168;SDS011;54981;50.206;15.978;2024-01-30T08:43:24;25.50;;;21.05;;
68168;SDS011;54981;50.206;15.978;2024-01-30T08:58:34;22.10;;;19.80;;
68168;SDS011;54981;50.206;15.978;2024-01-30T09:14:01;24.10;;;20.40;;
68168;SDS011;54981;50.206;15.978;2024-01-30T09:29:54;24.00;;;19.02;;
68168;SDS011;54981;50.206;15.978;2024-01-30T09:45:17;22.13;;;18.83;;
68168;SDS011;54981;50.206;15.978;2024-01-30T10:00:55;21.85;;;18.58;;
68168;SDS011;54981;50.206;15.978;2024-01-30T10:16:18;22.58;;;17.52;;
68168;SDS011;54981;50.206;15.978;2024-01-30T10:47:26;25.07;;;20.10;;
68168;SDS011;54981;50.206;15.978;2024-01-30T11:18:26;21.15;;;18.48;;
68168;SDS011;54981;50.206;15.978;2024-01-30T11:49:41;25.17;;;22.77;;
68168;SDS011;54981;50.206;15.978;2024-01-30T12:04:56;22.83;;;18.90;;
68168;SDS011;54981;50.206;15.978;2024-01-30T12:50:38;21.52;;;15.90;;
68168;SDS011;54981;50.206;15.978;2024-01-30T13:05:53;25.23;;;22.88;;
68168;SDS011;54981;50.206;15.978;2024-01-30T13:21:18;23.77;;;21.58;;
68168;SDS011;54981;50.206;15.978;2024-01-30T13:52:05;35.33;;;22.83;;
68168;SDS011;54981;50.206;15.978;2024-01-30T14:07:35;28.33;;;19.63;;
68168;SDS011;54981;50.206;15.978;2024-01-30T14:22:39;31.92;;;28.90;;
68168;SDS011;54981;50.206;15.978;2024-01-30T14:54:03;21.13;;;17.58;;
68168;SDS011;54981;50.206;15.978;2024-01-30T15:09:17;22.07;;;18.60;;
68168;SDS011;54981;50.206;15.978;2024-01-30T15:24:38;24.60;;;19.48;;
68168;SDS011;54981;50.206;15.978;2024-01-30T15:40:25;43.20;;;30.50;;
68168;SDS011;54981;50.206;15.978;2024-01-30T15:55:50;36.70;;;27.58;;
68168;SDS011;54981;50.206;15.978;2024-01-30T16:26:35;29.27;;;24.55;;
68168;SDS011;54981;50.206;15.978;2024-01-30T16:57:25;57.08;;;36.53;;
68168;SDS011;54981;50.206;15.978;2024-01-30T17:28:16;41.80;;;29.90;;
68168;SDS011;54981;50.206;15.978;2024-01-30T17:43:35;39.80;;;28.08;;
68168;SDS011;54981;50.206;15.978;2024-01-30T17:59:06;32.08;;;26.55;;
68168;SDS011;54981;50.206;15.978;2024-01-30T18:30:08;51.65;;;37.22;;
68168;SDS011;54981;50.206;15.978;2024-01-30T19:01:38;61.15;;;43.90;;
68168;SDS011;54981;50.206;15.978;2024-01-30T19:16:54;67.63;;;47.03;;
68168;SDS011;54981;50.206;15.978;2024-01-30T19:32:03;63.03;;;48.75;;
68168;SDS011;54981;50.206;15.978;2024-01-30T20:02:53;56.95;;;42.78;;
68168;SDS011;54981;50.206;15.978;2024-01-30T20:34:28;71.30;;;48.47;;
68168;SDS011;54981;50.206;15.978;2024-01-30T20:49:50;68.78;;;49.88;;
68168;SDS011;54981;50.206;15.978;2024-01-30T21:05:05;67.63;;;49.92;;
68168;SDS011;54981;50.206;15.978;2024-01-30T21:20:12;70.63;;;49.85;;
68168;SDS011;54981;50.206;15.978;2024-01-30T21:51:21;58.77;;;42.57;;
68168;SDS011;54981;50.206;15.978;2024-01-30T22:06:39;50.95;;;35.92;;
68168;SDS011;54981;50.206;15.978;2024-01-30T22:22:16;52.78;;;38.55;;
68168;SDS011;54981;50.206;15.978;2024-01-30T22:37:32;38.47;;;31.40;;
68168;SDS011;54981;50.206;15.978;2024-01-30T22:52:51;48.90;;;33.10;;
68168;SDS011;54981;50.206;15.978;2024-01-30T23:08:34;50.50;;;37.53;;
68168;SDS011;54981;50.206;15.978;2024-01-30T23:24:21;52.58;;;40.13;;
68168;SDS011;54981;50.206;15.978;2024-01-30T23:55:30;43.35;;;32.78;;
